createdAt,value
2023-04-08T00:00:58.139Z,88.38
2023-04-08T00:06:02.696Z,88.15
2023-04-08T00:11:05.764Z,88.00
2023-04-08T00:16:08.163Z,87.90
2023-04-08T00:21:10.785Z,88.20
2023-04-08T00:26:13.116Z,87.96
2023-04-08T00:31:16.602Z,88.43
2023-04-08T00:36:19.234Z,88.49
2023-04-08T00:41:21.929Z,88.15
2023-04-08T00:46:24.776Z,88.09
2023-04-08T00:51:39.080Z,88.09
2023-04-08T00:56:43.644Z,88.12
2023-04-08T01:02:06.808Z,88.03
2023-04-08T01:07:47.970Z,88.04
2023-04-08T01:12:56.555Z,88.08
2023-04-08T01:18:00.801Z,87.88
2023-04-08T01:23:18.561Z,88.23
2023-04-08T01:28:23.878Z,87.79
2023-04-08T01:33:29.446Z,88.00
2023-04-08T01:38:34.102Z,87.83
2023-04-08T01:43:39.600Z,87.63
2023-04-08T01:48:42.945Z,87.49
2023-04-08T01:53:45.801Z,87.30
2023-04-08T01:58:54.856Z,87.21
2023-04-08T02:04:00.697Z,87.16
2023-04-08T02:09:04.327Z,87.36
2023-04-08T02:14:06.668Z,87.72
2023-04-08T02:19:18.914Z,87.34
2023-04-08T02:24:22.313Z,87.30
2023-04-08T02:29:26.487Z,87.06
2023-04-08T02:34:30.894Z,86.99
2023-04-08T02:39:33.534Z,86.74
2023-04-08T02:44:36.483Z,86.68
2023-04-08T02:49:38.790Z,86.69
2023-04-08T02:54:41.941Z,86.85
2023-04-08T02:59:44.368Z,87.12
2023-04-08T03:04:50.607Z,86.67
2023-04-08T03:09:55.158Z,86.56
2023-04-08T03:14:58.073Z,86.62
2023-04-08T03:20:01.857Z,86.10
2023-04-08T03:25:04.575Z,86.54
2023-04-08T03:30:09.170Z,86.25
2023-04-08T03:35:11.830Z,86.28
2023-04-08T03:40:14.159Z,86.12
2023-04-08T03:45:17.363Z,85.94
2023-04-08T03:50:26.475Z,86.02
2023-04-08T03:55:29.207Z,86.11
2023-04-08T04:00:33.806Z,85.97
2023-04-08T04:05:38.112Z,86.11
2023-04-08T04:10:41.138Z,86.09
2023-04-08T04:15:43.951Z,86.02
2023-04-08T04:20:46.350Z,86.34
2023-04-08T04:25:49.169Z,85.86
2023-04-08T04:30:51.454Z,85.74
2023-04-08T04:35:54.511Z,85.41
2023-04-08T04:40:59.008Z,85.21
2023-04-08T04:46:02.488Z,85.23
2023-04-08T04:51:04.742Z,85.22
2023-04-08T04:56:08.315Z,85.18
2023-04-08T05:01:10.652Z,86.03
2023-04-08T05:06:14.152Z,85.10
2023-04-08T05:11:18.453Z,84.62
2023-04-08T05:16:21.105Z,84.70
2023-04-08T05:21:24.072Z,84.72
2023-04-08T05:26:28.140Z,84.58
2023-04-08T05:31:30.516Z,84.82
2023-04-08T05:36:33.528Z,85.18
2023-04-08T05:41:35.619Z,84.83
2023-04-08T05:46:38.882Z,84.35
2023-04-08T05:51:41.160Z,84.64
2023-04-08T05:56:46.472Z,84.31
2023-04-08T06:01:48.805Z,84.60
2023-04-08T06:06:51.485Z,84.46
2023-04-08T06:11:54.173Z,84.25
2023-04-08T06:16:57.761Z,84.05
2023-04-08T06:22:00.023Z,83.16
2023-04-08T06:27:03.417Z,82.70
2023-04-08T06:32:06.534Z,83.04
2023-04-08T06:37:09.204Z,82.62
2023-04-08T06:42:11.401Z,82.67
2023-04-08T06:47:21.693Z,83.47
2023-04-08T06:52:24.499Z,82.96
2023-04-08T06:57:30.122Z,82.50
2023-04-08T07:02:33.035Z,81.61
2023-04-08T07:07:36.831Z,81.07
2023-04-08T07:12:39.322Z,80.69
2023-04-08T07:17:42.973Z,80.67
2023-04-08T07:22:45.446Z,79.84
2023-04-08T07:27:48.014Z,79.11
2023-04-08T07:32:50.954Z,79.39
2023-04-08T07:37:53.914Z,79.98
2023-04-08T07:42:56.647Z,80.19
2023-04-08T07:47:59.040Z,78.99
2023-04-08T07:53:01.266Z,79.08
2023-04-08T07:58:03.947Z,78.53
2023-04-08T08:03:07.340Z,78.15
2023-04-08T08:08:14.094Z,77.79
2023-04-08T08:13:25.749Z,76.39
2023-04-08T08:18:40.220Z,76.32
2023-04-08T08:23:42.918Z,74.87
2023-04-08T08:28:45.400Z,74.42
2023-04-08T08:33:48.425Z,73.54
2023-04-08T08:38:55.362Z,72.19
2023-04-08T08:43:57.404Z,72.08
2023-04-08T08:49:13.245Z,71.41
2023-04-08T08:54:16.197Z,70.05
2023-04-08T08:59:18.763Z,74.63
2023-04-08T09:04:39.958Z,72.94
2023-04-08T09:09:51.724Z,71.24
2023-04-08T09:15:11.025Z,70.72
2023-04-08T09:20:16.470Z,70.39
2023-04-08T09:25:29.546Z,72.09
2023-04-08T09:30:38.734Z,71.17
2023-04-08T09:35:44.382Z,67.94
2023-04-08T09:41:41.751Z,68.91
2023-04-08T09:47:45.018Z,71.15
2023-04-08T09:53:34.331Z,70.03
2023-04-08T10:38:20.333Z,66.22
2023-04-08T10:43:24.205Z,64.75
2023-04-08T10:48:26.884Z,66.12
2023-04-08T10:53:31.092Z,62.97
2023-04-08T10:58:34.653Z,62.22
2023-04-08T11:03:37.958Z,62.45
2023-04-08T11:08:40.904Z,57.60
2023-04-08T11:13:52.592Z,62.71
2023-04-08T11:18:56.943Z,61.13
2023-04-08T11:23:59.249Z,59.38
2023-04-08T11:29:02.704Z,59.64
2023-04-08T11:34:04.558Z,61.79
2023-04-08T11:39:08.843Z,59.66
2023-04-08T11:44:11.512Z,63.60
2023-04-08T11:49:13.742Z,60.90
2023-04-08T11:54:27.769Z,57.40
2023-04-08T11:59:30.097Z,59.14
2023-04-08T12:04:32.447Z,58.94
2023-04-08T12:09:35.086Z,54.76
2023-04-08T12:14:37.870Z,56.81
2023-04-08T12:19:41.184Z,59.22
2023-04-08T12:24:43.160Z,56.66
2023-04-08T12:29:46.292Z,59.62
2023-04-08T12:34:48.215Z,58.26
2023-04-08T12:39:50.551Z,58.21
2023-04-08T12:44:53.222Z,59.04
2023-04-08T12:49:55.754Z,59.69
2023-04-08T12:54:57.942Z,58.59
2023-04-08T13:00:00.160Z,59.75
2023-04-08T13:05:02.536Z,59.42
2023-04-08T13:10:07.076Z,59.85
2023-04-08T13:15:10.362Z,61.64
2023-04-08T13:20:12.766Z,62.36
2023-04-08T13:25:14.659Z,63.90
2023-04-08T13:30:16.857Z,62.41
2023-04-08T13:35:19.410Z,62.46
2023-04-08T13:40:22.282Z,62.82
2023-04-08T13:45:25.329Z,63.08
2023-04-08T13:50:27.429Z,63.60
2023-04-08T13:55:29.385Z,64.51
2023-04-08T14:00:32.995Z,65.20
2023-04-08T14:05:34.938Z,65.48
2023-04-08T14:10:39.196Z,66.76
2023-04-08T14:15:42.197Z,67.00
2023-04-08T14:20:45.221Z,67.00
2023-04-08T14:25:47.697Z,66.45
2023-04-08T14:30:51.245Z,66.07
2023-04-08T14:35:53.876Z,67.66
2023-04-08T14:40:56.519Z,70.75
2023-04-08T14:45:58.421Z,68.80
2023-04-08T14:51:00.645Z,68.40
2023-04-08T14:56:02.618Z,69.01
2023-04-08T15:01:05.272Z,71.81
2023-04-08T15:06:08.265Z,68.29
2023-04-08T15:11:10.955Z,67.88
2023-04-08T15:16:13.281Z,69.88
2023-04-08T15:21:16.679Z,70.16
2023-04-08T15:26:18.773Z,69.52
2023-04-08T15:31:21.294Z,73.61
2023-04-08T15:36:23.476Z,72.09
2023-04-08T15:41:26.367Z,68.92
2023-04-08T15:46:28.283Z,69.93
2023-04-08T15:51:30.307Z,68.84
2023-04-08T15:56:33.709Z,71.12
2023-04-08T16:01:36.296Z,76.11
2023-04-08T16:06:38.456Z,71.95
2023-04-08T16:11:41.822Z,71.04
2023-04-08T16:16:43.847Z,70.86
2023-04-08T16:21:46.461Z,72.99
2023-04-08T16:26:48.409Z,72.91
2023-04-08T16:31:53.181Z,74.98
2023-04-08T16:36:56.873Z,76.95
2023-04-08T16:42:01.090Z,74.27
2023-04-08T16:47:03.169Z,73.37
2023-04-08T16:52:06.242Z,73.30
2023-04-08T16:57:08.431Z,75.48
2023-04-08T17:02:12.696Z,75.82
2023-04-08T17:07:16.127Z,76.62
2023-04-08T17:12:18.371Z,78.45
2023-04-08T17:17:21.043Z,81.72
2023-04-08T17:22:23.127Z,82.79
2023-04-08T17:27:25.034Z,82.79
2023-04-08T17:32:30.174Z,84.28
2023-04-08T17:37:32.045Z,84.60
2023-04-08T17:42:33.916Z,83.61
2023-04-08T17:47:36.156Z,78.40
2023-04-08T17:52:38.240Z,78.78
2023-04-08T17:57:40.177Z,78.22
2023-04-08T18:02:42.926Z,77.31
2023-04-08T18:07:45.462Z,75.00
2023-04-08T18:12:48.986Z,75.85
2023-04-08T18:17:51.448Z,76.84
2023-04-08T18:22:53.920Z,80.61
2023-04-08T18:27:55.910Z,80.06
2023-04-08T18:32:57.863Z,79.55
2023-04-08T18:37:59.909Z,79.85
2023-04-08T18:43:05.653Z,77.40
2023-04-08T18:48:09.528Z,79.96
2023-04-08T18:53:12.536Z,80.22
2023-04-08T18:58:14.724Z,80.60
2023-04-08T19:03:17.492Z,83.60
2023-04-08T19:08:19.502Z,84.34
2023-04-08T19:13:23.534Z,83.66
2023-04-08T19:18:26.096Z,77.74
2023-04-08T19:23:28.807Z,80.48
2023-04-08T19:28:32.414Z,78.53
2023-04-08T19:33:34.375Z,78.35
2023-04-08T19:38:36.343Z,80.65
2023-04-08T19:43:38.477Z,82.59
2023-04-08T19:48:40.507Z,84.91
2023-04-08T19:53:43.114Z,85.64
2023-04-08T19:58:45.041Z,86.07
2023-04-08T20:03:50.539Z,85.13
2023-04-08T20:08:53.667Z,84.33
2023-04-08T20:13:56.513Z,85.39
2023-04-08T20:18:58.588Z,85.50
2023-04-08T20:24:01.212Z,86.53
2023-04-08T20:29:03.144Z,87.00
2023-04-08T20:34:05.203Z,87.09
2023-04-08T20:39:10.821Z,86.36
2023-04-08T20:44:13.280Z,85.84
2023-04-08T20:49:18.771Z,85.09
2023-04-08T20:54:21.828Z,85.50
2023-04-08T20:59:23.752Z,85.87
2023-04-08T21:04:25.967Z,85.73
2023-04-08T21:09:28.621Z,86.52
2023-04-08T21:14:38.161Z,86.83
2023-04-08T21:19:40.237Z,87.07
2023-04-08T21:24:43.173Z,87.40
2023-04-08T21:29:45.287Z,87.32
2023-04-08T21:34:56.735Z,87.59
2023-04-08T21:39:58.679Z,87.92
2023-04-08T21:45:02.265Z,88.11
2023-04-08T21:50:08.161Z,88.10
2023-04-08T21:55:30.567Z,88.22
2023-04-08T22:00:32.559Z,88.26
2023-04-08T22:05:36.079Z,88.30
2023-04-08T22:10:38.171Z,87.67
2023-04-08T22:15:40.742Z,87.10
2023-04-08T22:20:43.317Z,86.92
2023-04-08T22:25:51.934Z,86.72
2023-04-08T22:30:55.416Z,84.05
2023-04-08T22:35:57.824Z,84.05
2023-04-08T22:41:00.893Z,83.29
2023-04-08T22:46:03.186Z,84.74
2023-04-08T22:51:05.548Z,86.27
2023-04-08T22:56:07.794Z,86.63
2023-04-08T23:01:18.590Z,86.87
2023-04-08T23:06:20.640Z,86.82
2023-04-08T23:11:42.467Z,86.97
2023-04-08T23:16:45.536Z,87.81
2023-04-08T23:21:47.525Z,88.22
2023-04-08T23:26:50.273Z,88.49
2023-04-08T23:31:54.473Z,88.56
2023-04-08T23:36:56.414Z,88.64
2023-04-08T23:41:58.878Z,89.03
2023-04-08T23:47:02.063Z,89.33
2023-04-08T23:52:06.319Z,89.11
2023-04-08T23:57:08.363Z,88.84
